sensor_id;sensor_type;location;lat;lon;timestamp;temperature;humidity
4651;DHT22;2338;49.602;8.722;2022-11-06T00:02:39;7.30;99.90
4651;DHT22;2338;49.602;8.722;2022-11-06T00:05:26;7.20;99.90
4651;DHT22;2338;49.602;8.722;2022-11-06T00:08:32;7.10;99.90
4651;DHT22;2338;49.602;8.722;2022-11-06T00:11:18;6.90;99.90
4651;DHT22;2338;49.602;8.722;2022-11-06T00:14:04;6.90;99.90
4651;DHT22;2338;49.602;8.722;2022-11-06T00:16:49;6.80;99.90
4651;DHT22;2338;49.602;8.722;2022-11-06T00:19:35;6.70;99.90
4651;DHT22;2338;49.602;8.722;2022-11-06T00:22:22;6.70;99.90
4651;DHT22;2338;49.602;8.722;2022-11-06T00:25:08;6.80;99.90
4651;DHT22;2338;49.602;8.722;2022-11-06T00:27:53;6.80;99.90
4651;DHT22;2338;49.602;8.722;2022-11-06T00:30:39;6.70;99.90
4651;DHT22;2338;49.602;8.722;2022-11-06T00:33:25;6.70;99.90
4651;DHT22;2338;49.602;8.722;2022-11-06T00:36:13;6.70;99.90
4651;DHT22;2338;49.602;8.722;2022-11-06T00:39:00;6.70;99.90
4651;DHT22;2338;49.602;8.722;2022-11-06T00:41:46;6.70;99.90
4651;DHT22;2338;49.602;8.722;2022-11-06T00:44:31;6.80;99.90
4651;DHT22;2338;49.602;8.722;2022-11-06T00:47:17;6.80;99.90
4651;DHT22;2338;49.602;8.722;2022-11-06T00:50:02;6.80;99.90
4651;DHT22;2338;49.602;8.722;2022-11-06T00:52:48;6.80;99.90
4651;DHT22;2338;49.602;8.722;2022-11-06T00:55:35;6.90;99.90
4651;DHT22;2338;49.602;8.722;2022-11-06T00:58:20;6.80;99.90
4651;DHT22;2338;49.602;8.722;2022-11-06T01:01:08;6.80;99.90
4651;DHT22;2338;49.602;8.722;2022-11-06T01:03:55;6.80;99.90
4651;DHT22;2338;49.602;8.722;2022-11-06T01:06:43;6.70;99.90
4651;DHT22;2338;49.602;8.722;2022-11-06T01:09:29;6.60;99.90
4651;DHT22;2338;49.602;8.722;2022-11-06T01:12:16;6.40;99.90
4651;DHT22;2338;49.602;8.722;2022-11-06T01:15:02;6.30;99.90
4651;DHT22;2338;49.602;8.722;2022-11-06T01:17:48;6.10;99.90
4651;DHT22;2338;49.602;8.722;2022-11-06T01:20:33;6.00;99.90
4651;DHT22;2338;49.602;8.722;2022-11-06T01:23:21;5.90;99.90
4651;DHT22;2338;49.602;8.722;2022-11-06T01:26:08;5.90;99.90
4651;DHT22;2338;49.602;8.722;2022-11-06T01:28:56;5.90;99.90
4651;DHT22;2338;49.602;8.722;2022-11-06T01:31:41;5.90;99.90
4651;DHT22;2338;49.602;8.722;2022-11-06T01:34:27;6.00;99.90
4651;DHT22;2338;49.602;8.722;2022-11-06T01:37:13;6.10;99.90
4651;DHT22;2338;49.602;8.722;2022-11-06T01:39:59;6.20;99.90
4651;DHT22;2338;49.602;8.722;2022-11-06T01:42:44;6.20;99.90
4651;DHT22;2338;49.602;8.722;2022-11-06T01:45:34;6.10;99.90
4651;DHT22;2338;49.602;8.722;2022-11-06T01:48:24;6.20;99.90
4651;DHT22;2338;49.602;8.722;2022-11-06T01:51:11;6.20;99.90
4651;DHT22;2338;49.602;8.722;2022-11-06T01:53:58;6.20;99.90
4651;DHT22;2338;49.602;8.722;2022-11-06T01:56:44;6.10;99.90
4651;DHT22;2338;49.602;8.722;2022-11-06T01:59:34;6.10;99.90
4651;DHT22;2338;49.602;8.722;2022-11-06T02:02:22;6.00;99.90
4651;DHT22;2338;49.602;8.722;2022-11-06T02:05:08;6.00;99.90
4651;DHT22;2338;49.602;8.722;2022-11-06T02:07:54;6.00;99.90
4651;DHT22;2338;49.602;8.722;2022-11-06T02:10:41;6.00;99.90
4651;DHT22;2338;49.602;8.722;2022-11-06T02:13:35;6.00;99.90
4651;DHT22;2338;49.602;8.722;2022-11-06T02:16:28;6.00;99.90
4651;DHT22;2338;49.602;8.722;2022-11-06T02:19:34;6.10;99.90
4651;DHT22;2338;49.602;8.722;2022-11-06T02:22:39;6.10;99.90
4651;DHT22;2338;49.602;8.722;2022-11-06T02:25:37;6.10;99.90
4651;DHT22;2338;49.602;8.722;2022-11-06T02:28:31;6.00;99.90
4651;DHT22;2338;49.602;8.722;2022-11-06T02:31:23;5.90;99.90
4651;DHT22;2338;49.602;8.722;2022-11-06T02:34:13;5.80;99.90
4651;DHT22;2338;49.602;8.722;2022-11-06T02:37:02;5.70;99.90
4651;DHT22;2338;49.602;8.722;2022-11-06T02:39:50;5.60;99.90
4651;DHT22;2338;49.602;8.722;2022-11-06T02:42:40;5.60;99.90
4651;DHT22;2338;49.602;8.722;2022-11-06T02:45:31;5.70;99.90
4651;DHT22;2338;49.602;8.722;2022-11-06T02:48:21;5.70;99.90
4651;DHT22;2338;49.602;8.722;2022-11-06T02:51:11;5.70;99.90
4651;DHT22;2338;49.602;8.722;2022-11-06T02:54:00;5.70;99.90
4651;DHT22;2338;49.602;8.722;2022-11-06T02:56:50;5.70;99.90
4651;DHT22;2338;49.602;8.722;2022-11-06T02:59:40;5.50;99.90
4651;DHT22;2338;49.602;8.722;2022-11-06T03:02:32;5.60;99.90
4651;DHT22;2338;49.602;8.722;2022-11-06T03:05:24;5.60;99.90
4651;DHT22;2338;49.602;8.722;2022-11-06T03:08:14;5.60;99.90
4651;DHT22;2338;49.602;8.722;2022-11-06T03:11:07;5.50;99.90
4651;DHT22;2338;49.602;8.722;2022-11-06T03:13:58;5.40;99.90
4651;DHT22;2338;49.602;8.722;2022-11-06T03:16:53;5.40;99.90
4651;DHT22;2338;49.602;8.722;2022-11-06T03:19:46;5.40;99.90
4651;DHT22;2338;49.602;8.722;2022-11-06T03:22:39;5.50;99.90
4651;DHT22;2338;49.602;8.722;2022-11-06T03:25:27;5.60;99.90
4651;DHT22;2338;49.602;8.722;2022-11-06T03:28:17;5.50;99.90
4651;DHT22;2338;49.602;8.722;2022-11-06T03:31:08;5.50;99.90
4651;DHT22;2338;49.602;8.722;2022-11-06T03:33:58;5.40;99.90
4651;DHT22;2338;49.602;8.722;2022-11-06T03:36:51;5.30;99.90
4651;DHT22;2338;49.602;8.722;2022-11-06T03:39:41;5.10;99.90
4651;DHT22;2338;49.602;8.722;2022-11-06T03:42:29;5.20;99.90
4651;DHT22;2338;49.602;8.722;2022-11-06T03:45:18;5.10;99.90
4651;DHT22;2338;49.602;8.722;2022-11-06T03:48:08;5.10;99.90
4651;DHT22;2338;49.602;8.722;2022-11-06T03:50:58;5.20;99.90
4651;DHT22;2338;49.602;8.722;2022-11-06T03:53:48;5.10;99.90
4651;DHT22;2338;49.602;8.722;2022-11-06T03:56:37;5.00;99.90
4651;DHT22;2338;49.602;8.722;2022-11-06T03:59:28;4.90;99.90
4651;DHT22;2338;49.602;8.722;2022-11-06T04:02:16;4.80;99.90
4651;DHT22;2338;49.602;8.722;2022-11-06T04:05:08;4.60;99.90
4651;DHT22;2338;49.602;8.722;2022-11-06T04:07:55;4.60;99.90
4651;DHT22;2338;49.602;8.722;2022-11-06T04:11:03;4.50;99.90
4651;DHT22;2338;49.602;8.722;2022-11-06T04:14:08;4.50;99.90
4651;DHT22;2338;49.602;8.722;2022-11-06T04:16:58;4.70;99.90
4651;DHT22;2338;49.602;8.722;2022-11-06T04:19:48;4.80;99.90
4651;DHT22;2338;49.602;8.722;2022-11-06T04:22:43;4.90;99.90
4651;DHT22;2338;49.602;8.722;2022-11-06T04:25:34;5.00;99.90
4651;DHT22;2338;49.602;8.722;2022-11-06T04:28:48;5.00;99.90
4651;DHT22;2338;49.602;8.722;2022-11-06T04:31:41;5.10;99.90
4651;DHT22;2338;49.602;8.722;2022-11-06T04:34:39;5.10;99.90
4651;DHT22;2338;49.602;8.722;2022-11-06T04:37:31;5.00;99.90
4651;DHT22;2338;49.602;8.722;2022-11-06T04:40:25;4.90;99.90
4651;DHT22;2338;49.602;8.722;2022-11-06T04:43:21;4.90;99.90
4651;DHT22;2338;49.602;8.722;2022-11-06T04:46:14;4.90;99.90
4651;DHT22;2338;49.602;8.722;2022-11-06T04:49:04;4.70;99.90
4651;DHT22;2338;49.602;8.722;2022-11-06T04:51:50;4.50;99.90
4651;DHT22;2338;49.602;8.722;2022-11-06T04:54:36;4.30;99.90
4651;DHT22;2338;49.602;8.722;2022-11-06T04:57:22;4.40;99.90
4651;DHT22;2338;49.602;8.722;2022-11-06T05:00:11;4.50;99.90
4651;DHT22;2338;49.602;8.722;2022-11-06T05:02:59;4.40;99.90
4651;DHT22;2338;49.602;8.722;2022-11-06T05:05:44;4.60;99.90
4651;DHT22;2338;49.602;8.722;2022-11-06T05:08:30;4.70;99.90
4651;DHT22;2338;49.602;8.722;2022-11-06T05:11:16;4.70;99.90
4651;DHT22;2338;49.602;8.722;2022-11-06T05:14:01;4.60;99.90
4651;DHT22;2338;49.602;8.722;2022-11-06T05:16:47;4.60;99.90
4651;DHT22;2338;49.602;8.722;2022-11-06T05:19:34;4.50;99.90
4651;DHT22;2338;49.602;8.722;2022-11-06T05:22:19;4.50;99.90
4651;DHT22;2338;49.602;8.722;2022-11-06T05:25:23;4.60;99.90
4651;DHT22;2338;49.602;8.722;2022-11-06T05:28:08;4.70;99.90
4651;DHT22;2338;49.602;8.722;2022-11-06T05:30:54;4.80;99.90
4651;DHT22;2338;49.602;8.722;2022-11-06T05:33:40;4.80;99.90
4651;DHT22;2338;49.602;8.722;2022-11-06T05:36:27;4.80;99.90
4651;DHT22;2338;49.602;8.722;2022-11-06T05:39:12;4.80;99.90
4651;DHT22;2338;49.602;8.722;2022-11-06T05:41:58;4.80;99.90
4651;DHT22;2338;49.602;8.722;2022-11-06T05:44:44;4.60;99.90
4651;DHT22;2338;49.602;8.722;2022-11-06T05:47:29;4.50;99.90
4651;DHT22;2338;49.602;8.722;2022-11-06T05:50:15;4.50;99.90
4651;DHT22;2338;49.602;8.722;2022-11-06T05:53:02;4.40;99.90
4651;DHT22;2338;49.602;8.722;2022-11-06T05:55:48;4.20;99.90
4651;DHT22;2338;49.602;8.722;2022-11-06T05:58:34;4.10;99.90
4651;DHT22;2338;49.602;8.722;2022-11-06T06:01:19;4.00;99.90
4651;DHT22;2338;49.602;8.722;2022-11-06T06:04:05;4.10;99.90
4651;DHT22;2338;49.602;8.722;2022-11-06T06:06:51;4.20;99.90
4651;DHT22;2338;49.602;8.722;2022-11-06T06:09:38;4.30;99.90
4651;DHT22;2338;49.602;8.722;2022-11-06T06:12:23;4.40;99.90
4651;DHT22;2338;49.602;8.722;2022-11-06T06:15:10;4.30;99.90
4651;DHT22;2338;49.602;8.722;2022-11-06T06:17:58;4.40;99.90
4651;DHT22;2338;49.602;8.722;2022-11-06T06:20:43;4.40;99.90
4651;DHT22;2338;49.602;8.722;2022-11-06T06:23:29;4.50;99.90
4651;DHT22;2338;49.602;8.722;2022-11-06T06:26:16;4.60;99.90
4651;DHT22;2338;49.602;8.722;2022-11-06T06:29:02;4.60;99.90
4651;DHT22;2338;49.602;8.722;2022-11-06T06:31:48;4.50;99.90
4651;DHT22;2338;49.602;8.722;2022-11-06T06:34:33;4.50;99.90
4651;DHT22;2338;49.602;8.722;2022-11-06T06:37:19;4.50;99.90
4651;DHT22;2338;49.602;8.722;2022-11-06T06:40:06;4.60;99.90
4651;DHT22;2338;49.602;8.722;2022-11-06T06:42:56;4.50;99.90
4651;DHT22;2338;49.602;8.722;2022-11-06T06:45:41;4.40;99.90
4651;DHT22;2338;49.602;8.722;2022-11-06T06:48:27;4.30;99.90
4651;DHT22;2338;49.602;8.722;2022-11-06T06:51:13;4.40;99.90
4651;DHT22;2338;49.602;8.722;2022-11-06T06:53:59;4.40;99.90
4651;DHT22;2338;49.602;8.722;2022-11-06T06:56:46;4.30;99.90
4651;DHT22;2338;49.602;8.722;2022-11-06T06:59:33;4.20;99.90
4651;DHT22;2338;49.602;8.722;2022-11-06T07:02:18;4.10;99.90
4651;DHT22;2338;49.602;8.722;2022-11-06T07:05:04;4.10;99.90
4651;DHT22;2338;49.602;8.722;2022-11-06T07:07:50;4.00;99.90
4651;DHT22;2338;49.602;8.722;2022-11-06T07:10:35;4.10;99.90
4651;DHT22;2338;49.602;8.722;2022-11-06T07:13:21;4.20;99.90
4651;DHT22;2338;49.602;8.722;2022-11-06T07:16:09;4.10;99.90
4651;DHT22;2338;49.602;8.722;2022-11-06T07:18:55;4.20;99.90
4651;DHT22;2338;49.602;8.722;2022-11-06T07:21:41;4.10;99.90
4651;DHT22;2338;49.602;8.722;2022-11-06T07:24:26;4.10;99.90
4651;DHT22;2338;49.602;8.722;2022-11-06T07:27:12;4.20;99.90
4651;DHT22;2338;49.602;8.722;2022-11-06T07:29:58;4.30;99.90
4651;DHT22;2338;49.602;8.722;2022-11-06T07:32:44;4.30;99.90
4651;DHT22;2338;49.602;8.722;2022-11-06T07:35:31;4.40;99.90
4651;DHT22;2338;49.602;8.722;2022-11-06T07:38:17;4.50;99.90
4651;DHT22;2338;49.602;8.722;2022-11-06T07:41:03;4.60;99.90
4651;DHT22;2338;49.602;8.722;2022-11-06T07:43:49;4.70;99.90
4651;DHT22;2338;49.602;8.722;2022-11-06T07:46:35;4.70;99.90
4651;DHT22;2338;49.602;8.722;2022-11-06T07:49:22;4.60;99.90
4651;DHT22;2338;49.602;8.722;2022-11-06T07:52:07;4.70;99.90
4651;DHT22;2338;49.602;8.722;2022-11-06T07:54:53;4.70;99.90
4651;DHT22;2338;49.602;8.722;2022-11-06T07:57:39;4.70;99.90
4651;DHT22;2338;49.602;8.722;2022-11-06T08:00:25;4.60;99.90
4651;DHT22;2338;49.602;8.722;2022-11-06T08:03:11;4.70;99.90
4651;DHT22;2338;49.602;8.722;2022-11-06T08:05:58;4.70;99.90
4651;DHT22;2338;49.602;8.722;2022-11-06T08:08:46;4.80;99.90
4651;DHT22;2338;49.602;8.722;2022-11-06T08:11:32;4.80;99.90
4651;DHT22;2338;49.602;8.722;2022-11-06T08:14:18;4.90;99.90
4651;DHT22;2338;49.602;8.722;2022-11-06T08:17:03;5.00;99.90
4651;DHT22;2338;49.602;8.722;2022-11-06T08:19:49;5.10;99.90
4651;DHT22;2338;49.602;8.722;2022-11-06T08:22:36;5.20;99.90
4651;DHT22;2338;49.602;8.722;2022-11-06T08:25:22;5.20;99.90
4651;DHT22;2338;49.602;8.722;2022-11-06T08:28:08;5.30;99.90
4651;DHT22;2338;49.602;8.722;2022-11-06T08:30:54;5.40;99.90
4651;DHT22;2338;49.602;8.722;2022-11-06T08:33:40;5.50;99.90
4651;DHT22;2338;49.602;8.722;2022-11-06T08:36:27;5.70;99.90
4651;DHT22;2338;49.602;8.722;2022-11-06T08:39:15;6.00;99.90
4651;DHT22;2338;49.602;8.722;2022-11-06T08:42:00;6.10;99.90
4651;DHT22;2338;49.602;8.722;2022-11-06T08:44:47;6.20;99.90
4651;DHT22;2338;49.602;8.722;2022-11-06T08:47:33;6.30;99.90
4651;DHT22;2338;49.602;8.722;2022-11-06T08:50:19;6.50;99.90
4651;DHT22;2338;49.602;8.722;2022-11-06T08:53:05;6.50;99.90
4651;DHT22;2338;49.602;8.722;2022-11-06T08:55:52;6.60;99.90
4651;DHT22;2338;49.602;8.722;2022-11-06T08:58:38;6.80;99.90
4651;DHT22;2338;49.602;8.722;2022-11-06T09:01:24;6.90;99.90
4651;DHT22;2338;49.602;8.722;2022-11-06T09:04:10;7.00;99.90
4651;DHT22;2338;49.602;8.722;2022-11-06T09:06:56;7.10;99.90
4651;DHT22;2338;49.602;8.722;2022-11-06T09:09:41;7.20;99.90
4651;DHT22;2338;49.602;8.722;2022-11-06T09:12:28;7.20;99.90
4651;DHT22;2338;49.602;8.722;2022-11-06T09:15:14;7.40;99.90
4651;DHT22;2338;49.602;8.722;2022-11-06T09:18:00;7.50;99.90
4651;DHT22;2338;49.602;8.722;2022-11-06T09:20:46;7.70;99.90
4651;DHT22;2338;49.602;8.722;2022-11-06T09:23:31;7.80;99.90
4651;DHT22;2338;49.602;8.722;2022-11-06T09:26:17;7.80;99.90
4651;DHT22;2338;49.602;8.722;2022-11-06T09:29:04;8.00;99.90
4651;DHT22;2338;49.602;8.722;2022-11-06T09:31:50;8.20;99.90
4651;DHT22;2338;49.602;8.722;2022-11-06T09:34:37;8.50;99.90
4651;DHT22;2338;49.602;8.722;2022-11-06T09:37:22;8.70;99.90
4651;DHT22;2338;49.602;8.722;2022-11-06T09:40:16;9.00;99.90
4651;DHT22;2338;49.602;8.722;2022-11-06T09:43:10;9.10;99.90
4651;DHT22;2338;49.602;8.722;2022-11-06T09:46:06;9.20;99.90
4651;DHT22;2338;49.602;8.722;2022-11-06T09:48:58;9.40;99.90
4651;DHT22;2338;49.602;8.722;2022-11-06T09:51:47;9.60;99.90
4651;DHT22;2338;49.602;8.722;2022-11-06T09:54:39;9.70;99.90
4651;DHT22;2338;49.602;8.722;2022-11-06T09:57:31;9.90;99.90
4651;DHT22;2338;49.602;8.722;2022-11-06T10:00:18;10.00;99.90
4651;DHT22;2338;49.602;8.722;2022-11-06T10:03:13;10.00;99.90
4651;DHT22;2338;49.602;8.722;2022-11-06T10:06:00;10.00;99.90
4651;DHT22;2338;49.602;8.722;2022-11-06T10:08:46;9.90;99.90
4651;DHT22;2338;49.602;8.722;2022-11-06T10:11:48;9.90;99.90
4651;DHT22;2338;49.602;8.722;2022-11-06T10:14:45;10.00;99.90
4651;DHT22;2338;49.602;8.722;2022-11-06T10:17:42;10.00;99.90
4651;DHT22;2338;49.602;8.722;2022-11-06T10:20:37;10.10;99.90
4651;DHT22;2338;49.602;8.722;2022-11-06T10:23:33;10.10;99.90
4651;DHT22;2338;49.602;8.722;2022-11-06T10:26:27;10.10;99.90
4651;DHT22;2338;49.602;8.722;2022-11-06T10:29:30;10.20;99.90
4651;DHT22;2338;49.602;8.722;2022-11-06T10:32:29;10.40;99.90
4651;DHT22;2338;49.602;8.722;2022-11-06T10:35:21;10.60;99.90
4651;DHT22;2338;49.602;8.722;2022-11-06T10:38:12;10.60;99.90
4651;DHT22;2338;49.602;8.722;2022-11-06T10:40:58;10.70;99.90
4651;DHT22;2338;49.602;8.722;2022-11-06T10:43:48;10.80;99.90
4651;DHT22;2338;49.602;8.722;2022-11-06T10:46:37;10.70;99.90
4651;DHT22;2338;49.602;8.722;2022-11-06T10:49:33;10.70;99.90
4651;DHT22;2338;49.602;8.722;2022-11-06T10:52:44;10.80;99.90
4651;DHT22;2338;49.602;8.722;2022-11-06T10:55:44;10.80;99.90
4651;DHT22;2338;49.602;8.722;2022-11-06T10:58:32;10.80;99.90
4651;DHT22;2338;49.602;8.722;2022-11-06T11:01:18;10.90;99.90
4651;DHT22;2338;49.602;8.722;2022-11-06T11:04:03;10.90;99.90
4651;DHT22;2338;49.602;8.722;2022-11-06T11:06:49;11.00;99.90
4651;DHT22;2338;49.602;8.722;2022-11-06T11:09:34;11.10;99.90
4651;DHT22;2338;49.602;8.722;2022-11-06T11:12:24;11.10;99.90
4651;DHT22;2338;49.602;8.722;2022-11-06T11:15:14;11.10;99.90
4651;DHT22;2338;49.602;8.722;2022-11-06T11:18:11;11.10;99.90
4651;DHT22;2338;49.602;8.722;2022-11-06T11:21:12;11.10;99.90
4651;DHT22;2338;49.602;8.722;2022-11-06T11:24:07;11.20;99.90
4651;DHT22;2338;49.602;8.722;2022-11-06T11:26:54;11.20;99.90
4651;DHT22;2338;49.602;8.722;2022-11-06T11:29:45;11.20;99.90
4651;DHT22;2338;49.602;8.722;2022-11-06T11:32:33;11.40;99.90
4651;DHT22;2338;49.602;8.722;2022-11-06T11:35:20;11.40;99.90
4651;DHT22;2338;49.602;8.722;2022-11-06T11:38:09;11.50;99.90
4651;DHT22;2338;49.602;8.722;2022-11-06T11:41:06;11.60;99.90
4651;DHT22;2338;49.602;8.722;2022-11-06T11:44:03;11.70;99.90
4651;DHT22;2338;49.602;8.722;2022-11-06T11:46:52;11.80;99.90
4651;DHT22;2338;49.602;8.722;2022-11-06T11:49:37;11.90;99.90
4651;DHT22;2338;49.602;8.722;2022-11-06T11:52:23;12.00;99.90
4651;DHT22;2338;49.602;8.722;2022-11-06T11:55:14;12.20;99.90
4651;DHT22;2338;49.602;8.722;2022-11-06T11:58:00;12.30;99.90
4651;DHT22;2338;49.602;8.722;2022-11-06T12:00:51;12.50;99.90
4651;DHT22;2338;49.602;8.722;2022-11-06T12:03:41;12.60;99.90
4651;DHT22;2338;49.602;8.722;2022-11-06T12:06:27;12.60;99.90
4651;DHT22;2338;49.602;8.722;2022-11-06T12:09:13;12.70;99.90
4651;DHT22;2338;49.602;8.722;2022-11-06T12:11:59;12.80;99.90
4651;DHT22;2338;49.602;8.722;2022-11-06T12:14:45;12.90;99.90
4651;DHT22;2338;49.602;8.722;2022-11-06T12:17:33;13.00;99.90
4651;DHT22;2338;49.602;8.722;2022-11-06T12:20:24;13.10;99.90
4651;DHT22;2338;49.602;8.722;2022-11-06T12:23:15;13.20;99.90
4651;DHT22;2338;49.602;8.722;2022-11-06T12:26:06;13.20;99.90
4651;DHT22;2338;49.602;8.722;2022-11-06T12:28:55;13.10;99.90
4651;DHT22;2338;49.602;8.722;2022-11-06T12:31:45;13.10;99.90
4651;DHT22;2338;49.602;8.722;2022-11-06T12:34:34;13.10;99.90
4651;DHT22;2338;49.602;8.722;2022-11-06T12:37:25;13.00;99.90
4651;DHT22;2338;49.602;8.722;2022-11-06T12:40:18;13.00;99.90
4651;DHT22;2338;49.602;8.722;2022-11-06T12:43:24;13.00;99.90
4651;DHT22;2338;49.602;8.722;2022-11-06T12:46:35;12.90;99.90
4651;DHT22;2338;49.602;8.722;2022-11-06T12:49:46;12.90;99.90
4651;DHT22;2338;49.602;8.722;2022-11-06T12:52:45;12.90;99.90
4651;DHT22;2338;49.602;8.722;2022-11-06T12:55:36;13.00;99.90
4651;DHT22;2338;49.602;8.722;2022-11-06T12:58:46;13.10;99.90
4651;DHT22;2338;49.602;8.722;2022-11-06T13:01:55;13.20;99.90
4651;DHT22;2338;49.602;8.722;2022-11-06T13:04:48;13.20;99.90
4651;DHT22;2338;49.602;8.722;2022-11-06T13:07:48;13.20;99.90
4651;DHT22;2338;49.602;8.722;2022-11-06T13:10:45;13.20;99.90
4651;DHT22;2338;49.602;8.722;2022-11-06T13:13:40;13.10;99.90
4651;DHT22;2338;49.602;8.722;2022-11-06T13:16:34;13.00;99.90
4651;DHT22;2338;49.602;8.722;2022-11-06T13:19:26;12.90;99.90
4651;DHT22;2338;49.602;8.722;2022-11-06T13:22:22;12.80;99.90
4651;DHT22;2338;49.602;8.722;2022-11-06T13:25:15;12.80;99.90
4651;DHT22;2338;49.602;8.722;2022-11-06T13:28:22;12.60;99.90
4651;DHT22;2338;49.602;8.722;2022-11-06T13:31:11;12.50;99.90
4651;DHT22;2338;49.602;8.722;2022-11-06T13:33:58;12.50;99.90
4651;DHT22;2338;49.602;8.722;2022-11-06T13:36:46;12.40;99.90
4651;DHT22;2338;49.602;8.722;2022-11-06T13:39:36;12.30;99.90
4651;DHT22;2338;49.602;8.722;2022-11-06T13:42:30;12.30;99.90
4651;DHT22;2338;49.602;8.722;2022-11-06T13:45:18;12.30;99.90
4651;DHT22;2338;49.602;8.722;2022-11-06T13:48:19;12.20;99.90
4651;DHT22;2338;49.602;8.722;2022-11-06T13:51:14;12.10;99.90
4651;DHT22;2338;49.602;8.722;2022-11-06T13:54:03;12.10;99.90
4651;DHT22;2338;49.602;8.722;2022-11-06T13:57:06;12.10;99.90
4651;DHT22;2338;49.602;8.722;2022-11-06T14:00:04;12.10;99.90
4651;DHT22;2338;49.602;8.722;2022-11-06T14:03:31;12.00;99.90
4651;DHT22;2338;49.602;8.722;2022-11-06T14:06:23;11.90;99.90
4651;DHT22;2338;49.602;8.722;2022-11-06T14:09:14;11.90;99.90
4651;DHT22;2338;49.602;8.722;2022-11-06T14:12:02;11.90;99.90
4651;DHT22;2338;49.602;8.722;2022-11-06T14:14:52;11.90;99.90
4651;DHT22;2338;49.602;8.722;2022-11-06T14:17:41;11.90;99.90
4651;DHT22;2338;49.602;8.722;2022-11-06T14:20:30;11.90;99.90
4651;DHT22;2338;49.602;8.722;2022-11-06T14:23:44;11.80;99.90
4651;DHT22;2338;49.602;8.722;2022-11-06T14:26:39;11.70;99.90
4651;DHT22;2338;49.602;8.722;2022-11-06T14:29:58;11.70;99.90
4651;DHT22;2338;49.602;8.722;2022-11-06T14:32:46;11.60;99.90
4651;DHT22;2338;49.602;8.722;2022-11-06T14:35:48;11.60;99.90
4651;DHT22;2338;49.602;8.722;2022-11-06T14:38:37;11.60;99.90
4651;DHT22;2338;49.602;8.722;2022-11-06T14:41:52;11.60;99.90
4651;DHT22;2338;49.602;8.722;2022-11-06T14:44:45;11.50;99.90
4651;DHT22;2338;49.602;8.722;2022-11-06T14:47:34;11.50;99.90
4651;DHT22;2338;49.602;8.722;2022-11-06T14:50:27;11.50;99.90
4651;DHT22;2338;49.602;8.722;2022-11-06T14:53:20;11.50;99.90
4651;DHT22;2338;49.602;8.722;2022-11-06T14:56:08;11.50;99.90
4651;DHT22;2338;49.602;8.722;2022-11-06T14:58:56;11.30;99.90
4651;DHT22;2338;49.602;8.722;2022-11-06T15:01:53;11.30;99.90
4651;DHT22;2338;49.602;8.722;2022-11-06T15:04:43;11.30;99.90
4651;DHT22;2338;49.602;8.722;2022-11-06T15:07:51;11.30;99.90
4651;DHT22;2338;49.602;8.722;2022-11-06T15:10:50;11.20;99.90
4651;DHT22;2338;49.602;8.722;2022-11-06T15:13:36;11.10;99.90
4651;DHT22;2338;49.602;8.722;2022-11-06T15:16:23;11.10;99.90
4651;DHT22;2338;49.602;8.722;2022-11-06T15:19:13;11.00;99.90
4651;DHT22;2338;49.602;8.722;2022-11-06T15:22:13;11.00;99.90
4651;DHT22;2338;49.602;8.722;2022-11-06T15:25:16;11.00;99.90
4651;DHT22;2338;49.602;8.722;2022-11-06T15:28:09;11.00;99.90
4651;DHT22;2338;49.602;8.722;2022-11-06T15:30:59;11.00;99.90
4651;DHT22;2338;49.602;8.722;2022-11-06T15:33:50;11.00;99.90
4651;DHT22;2338;49.602;8.722;2022-11-06T15:36:40;10.80;99.90
4651;DHT22;2338;49.602;8.722;2022-11-06T15:39:32;10.80;99.90
4651;DHT22;2338;49.602;8.722;2022-11-06T15:42:26;10.80;99.90
4651;DHT22;2338;49.602;8.722;2022-11-06T15:45:21;10.80;99.90
4651;DHT22;2338;49.602;8.722;2022-11-06T15:48:22;10.70;99.90
4651;DHT22;2338;49.602;8.722;2022-11-06T15:51:19;10.60;99.90
4651;DHT22;2338;49.602;8.722;2022-11-06T15:54:09;10.50;99.90
4651;DHT22;2338;49.602;8.722;2022-11-06T15:56:58;10.50;99.90
4651;DHT22;2338;49.602;8.722;2022-11-06T15:59:45;10.40;99.90
4651;DHT22;2338;49.602;8.722;2022-11-06T16:02:31;10.40;99.90
4651;DHT22;2338;49.602;8.722;2022-11-06T16:05:18;10.40;99.90
4651;DHT22;2338;49.602;8.722;2022-11-06T16:08:05;10.40;99.90
4651;DHT22;2338;49.602;8.722;2022-11-06T16:10:52;10.40;99.90
4651;DHT22;2338;49.602;8.722;2022-11-06T16:13:39;10.30;99.90
4651;DHT22;2338;49.602;8.722;2022-11-06T16:16:32;10.30;99.90
4651;DHT22;2338;49.602;8.722;2022-11-06T16:19:26;10.40;99.90
4651;DHT22;2338;49.602;8.722;2022-11-06T16:22:14;10.30;99.90
4651;DHT22;2338;49.602;8.722;2022-11-06T16:25:02;10.30;99.90
4651;DHT22;2338;49.602;8.722;2022-11-06T16:27:49;10.20;99.90
4651;DHT22;2338;49.602;8.722;2022-11-06T16:30:34;10.20;99.90
4651;DHT22;2338;49.602;8.722;2022-11-06T16:33:22;10.10;99.90
4651;DHT22;2338;49.602;8.722;2022-11-06T16:36:09;10.10;99.90
4651;DHT22;2338;49.602;8.722;2022-11-06T16:42:27;9.90;99.90
4651;DHT22;2338;49.602;8.722;2022-11-06T16:45:18;10.00;99.90
4651;DHT22;2338;49.602;8.722;2022-11-06T16:48:31;9.90;99.90
4651;DHT22;2338;49.602;8.722;2022-11-06T16:51:29;10.00;99.90
4651;DHT22;2338;49.602;8.722;2022-11-06T16:54:17;9.90;99.90
4651;DHT22;2338;49.602;8.722;2022-11-06T16:57:07;10.00;99.90
4651;DHT22;2338;49.602;8.722;2022-11-06T16:59:56;9.90;99.90
4651;DHT22;2338;49.602;8.722;2022-11-06T17:02:45;9.90;99.90
4651;DHT22;2338;49.602;8.722;2022-11-06T17:05:34;9.90;99.90
4651;DHT22;2338;49.602;8.722;2022-11-06T17:08:23;10.00;99.90
4651;DHT22;2338;49.602;8.722;2022-11-06T17:11:16;9.90;99.90
4651;DHT22;2338;49.602;8.722;2022-11-06T17:14:16;10.00;99.90
4651;DHT22;2338;49.602;8.722;2022-11-06T17:17:02;10.00;99.90
4651;DHT22;2338;49.602;8.722;2022-11-06T17:19:48;10.00;99.90
4651;DHT22;2338;49.602;8.722;2022-11-06T17:22:35;10.00;99.90
4651;DHT22;2338;49.602;8.722;2022-11-06T17:25:21;10.00;99.90
4651;DHT22;2338;49.602;8.722;2022-11-06T17:28:07;10.00;99.90
4651;DHT22;2338;49.602;8.722;2022-11-06T17:30:53;10.10;99.90
4651;DHT22;2338;49.602;8.722;2022-11-06T17:33:39;10.10;99.90
4651;DHT22;2338;49.602;8.722;2022-11-06T17:36:26;10.20;99.90
4651;DHT22;2338;49.602;8.722;2022-11-06T17:39:14;10.20;99.90
4651;DHT22;2338;49.602;8.722;2022-11-06T17:41:59;10.10;99.90
4651;DHT22;2338;49.602;8.722;2022-11-06T17:44:45;10.20;99.90
4651;DHT22;2338;49.602;8.722;2022-11-06T17:47:31;10.20;99.90
4651;DHT22;2338;49.602;8.722;2022-11-06T17:50:17;10.20;99.90
4651;DHT22;2338;49.602;8.722;2022-11-06T17:53:02;10.20;99.90
4651;DHT22;2338;49.602;8.722;2022-11-06T17:55:49;10.20;99.90
4651;DHT22;2338;49.602;8.722;2022-11-06T17:58:36;10.20;99.90
4651;DHT22;2338;49.602;8.722;2022-11-06T18:01:21;10.20;99.90
4651;DHT22;2338;49.602;8.722;2022-11-06T18:04:07;10.10;99.90
4651;DHT22;2338;49.602;8.722;2022-11-06T18:06:53;10.10;99.90
4651;DHT22;2338;49.602;8.722;2022-11-06T18:09:39;10.10;99.90
4651;DHT22;2338;49.602;8.722;2022-11-06T18:12:26;10.10;99.90
4651;DHT22;2338;49.602;8.722;2022-11-06T18:15:12;10.00;99.90
4651;DHT22;2338;49.602;8.722;2022-11-06T18:17:57;9.90;99.90
4651;DHT22;2338;49.602;8.722;2022-11-06T18:20:43;10.00;99.90
4651;DHT22;2338;49.602;8.722;2022-11-06T18:23:29;10.00;99.90
4651;DHT22;2338;49.602;8.722;2022-11-06T18:26:16;9.90;99.90
4651;DHT22;2338;49.602;8.722;2022-11-06T18:29:03;9.90;99.90
4651;DHT22;2338;49.602;8.722;2022-11-06T18:31:49;9.90;99.90
4651;DHT22;2338;49.602;8.722;2022-11-06T18:34:35;10.00;99.90
4651;DHT22;2338;49.602;8.722;2022-11-06T18:37:21;10.00;99.90
4651;DHT22;2338;49.602;8.722;2022-11-06T18:40:10;10.00;99.90
4651;DHT22;2338;49.602;8.722;2022-11-06T18:42:55;10.10;99.90
4651;DHT22;2338;49.602;8.722;2022-11-06T18:45:42;10.20;99.90